Weather reports worldwide

Advertisment
Großer Arber, Germany (10791): temperature & dewpoint: 06.11.2019 16:00:00 - 12.11.2019 16:00:00 (CET)Großer Arber, Germany (10791): wind speed & gusts: 06.11.2019 16:00:00 - 12.11.2019 16:00:00 (CET)Großer Arber, Germany (10791): wind direction: 06.11.2019 16:00:00 - 12.11.2019 16:00:00 (CET)Großer Arber, Germany (10791): visibility: 06.11.2019 16:00:00 - 12.11.2019 16:00:00 (CET)Großer Arber, Germany (10791): sunshine duration: 06.11.2019 16:00:00 - 12.11.2019 16:00:00 (CET)Großer Arber, Germany (10791): precipitation: 06.11.2019 16:00:00 - 12.11.2019 16:00:00 (CET)
Date & Time tt [°C] td [°C] ff [km/h] ff [kn] fx [km/h] fx [kn] dd vv [km] sd [min] rr [mm]
12.11.2019 16:00:00 -2,3 -2,4 14 8 20 11 SSW 0,1 0 0,0
12.11.2019 15:00:00 -2,6 -2,9 17 9 22 12 SSW 44 0 0,0
12.11.2019 14:00:00 -2,6 -2,8 16 9 23 13 SSW 28 0 0,0
12.11.2019 13:00:00 -2,4 -2,6 16 9 27 14 SSW 0,3 0 0,0
12.11.2019 12:00:00 -2,2 -2,4 23 13 34 18 SW 0,1 0 0,0
12.11.2019 11:00:00 -2,3 -2,6 24 13 30 16 SSW 0,1 0 0,0
12.11.2019 10:00:00 -2,7 -3,1 24 13 43 23 SW - 0 0,0
12.11.2019 09:00:00 -2,8 -3,1 23 12 34 18 SW - 0 0,0
12.11.2019 08:00:00 -3,1 -3,4 19 11 32 18 SSW - 0 0,0
12.11.2019 07:00:00 -3,3 -3,6 18 10 39 21 SSW - 0 0,0
12.11.2019 06:00:00 -3,2 -3,6 36 20 55 30 SSW 0,1 0 0,2
12.11.2019 05:00:00 -2,9 -3,3 28 15 53 29 SW 0,1 0 0,2
12.11.2019 04:00:00 -2,5 -2,8 30 16 45 25 SW 0,1 0 0,0
12.11.2019 03:00:00 -2,1 -2,3 34 19 52 28 WSW 0,1 0 0,0
12.11.2019 02:00:00 -2,2 -2,5 36 20 52 28 W 0,1 0 0,0
12.11.2019 01:00:00 -2,8 -3,3 25 13 39 21 W 0,1 0 0,0
12.11.2019 00:00:00 -0,7 -3,6 20 11 31 17 W 59 0 0,0
11.11.2019 23:00:00 -0,7 -2,5 7 4 32 17 SW 47 0 0,0
11.11.2019 22:00:00 2,1 -2,4 17 9 35 19 W 75 0 0,0
11.11.2019 21:00:00 3,0 -2,6 25 14 41 22 SW 75 0 0,0
11.11.2019 20:00:00 2,2 -4,4 30 16 36 20 S 75 0 0,0
11.11.2019 19:00:00 2,7 -6,6 26 14 37 20 S 75 0 0,0
11.11.2019 18:00:00 3,0 -9,4 31 17 39 21 S 75 0 0,0
11.11.2019 17:00:00 0,5 -5,7 29 16 37 20 SSE 75 27 0,0
11.11.2019 16:00:00 1,9 -9,5 30 16 41 22 S 75 48 0,0
11.11.2019 15:00:00 1,5 -10,0 29 16 37 20 SSE 75 54 0,0
11.11.2019 14:00:00 0,5 -9,0 29 16 38 21 SSE 69 58 0,0
11.11.2019 13:00:00 0,7 -7,5 31 17 41 22 SSE 54 60 0,0
11.11.2019 12:00:00 -0,2 -4,7 30 16 40 21 SE 75 60 0,0
11.11.2019 11:00:00 -0,5 -4,3 29 16 39 21 SSE 75 60 0,0
11.11.2019 10:00:00 -1,1 -5,2 22 12 31 17 SSE 75 60 0,0
11.11.2019 09:00:00 -1,5 -4,8 22 12 30 16 SSE 75 60 0,0
11.11.2019 08:00:00 -2,8 -5,8 16 9 22 12 SSE 75 25 0,0
11.11.2019 07:00:00 -3,5 -6,0 14 8 22 12 SSE 75 0 0,0
11.11.2019 06:00:00 -3,2 -5,6 17 9 21 12 S 75 0 0,0
11.11.2019 05:00:00 -3,1 -5,3 16 9 19 10 S 75 0 0,0
11.11.2019 04:00:00 -3,5 -5,5 14 7 16 9 S 75 0 0,0
11.11.2019 03:00:00 -4,0 -6,3 8 5 10 5 S 75 0 0,0
11.11.2019 02:00:00 -3,8 -6,9 6 4 10 5 S 75 0 0,0
11.11.2019 01:00:00 -3,9 -6,3 3 2 6 3 SE 75 0 0,0
11.11.2019 00:00:00 -4,0 -5,9 3 2 15 8 SSW 75 0 0,0
10.11.2019 23:00:00 -3,5 -3,9 9 5 15 8 S - 0 0,0
10.11.2019 22:00:00 -3,5 -4,5 9 5 10 5 SSE 59 0 0,0
10.11.2019 21:00:00 -3,6 -4,2 2 1 3 2 NE 73 0 0,0
10.11.2019 20:00:00 -3,8 -4,4 0 0 7 4 N 75 0 0,0
10.11.2019 19:00:00 -3,6 -5,7 7 4 9 5 SE 75 0 0,0
10.11.2019 18:00:00 -2,7 -3,6 5 3 11 6 ESE 59 0 0,0
10.11.2019 17:00:00 -2,7 -3,4 8 4 11 6 S 32 3 0,0
10.11.2019 16:00:00 -2,2 -2,8 10 6 15 8 ENE 12 31 0,0
10.11.2019 15:00:00 -1,4 -2,2 6 3 9 5 E 25 25 0,0
10.11.2019 14:00:00 -1,8 -2,8 6 3 14 8 ESE 14 14 0,0
10.11.2019 13:00:00 -1,3 -1,8 6 3 12 7 E 15 51 0,0
10.11.2019 12:00:00 -1,5 -2,4 9 5 17 9 E 18 60 0,0
10.11.2019 11:00:00 -2,3 -3,8 12 6 23 13 E 74 60 0,0
10.11.2019 10:00:00 -2,6 -3,7 15 8 19 10 E 52 60 0,0
10.11.2019 09:00:00 -3,1 -4,5 14 8 17 9 ESE 75 60 0,0
10.11.2019 08:00:00 -3,9 -5,1 12 6 15 8 E 75 25 0,0
10.11.2019 07:00:00 -4,4 -5,1 10 6 14 8 E 75 0 0,0
10.11.2019 06:00:00 -4,3 -4,8 11 6 19 11 E 75 0 0,0
10.11.2019 05:00:00 -4,0 -4,2 15 8 21 12 E 52 0 0,0
10.11.2019 04:00:00 -3,9 -4,2 18 10 23 13 ESE 11 0 0,0
10.11.2019 03:00:00 -3,8 -4,0 16 9 18 10 E 30 0 0,0
10.11.2019 02:00:00 -3,4 -3,6 11 6 15 8 ENE 56 0 0,0
10.11.2019 01:00:00 -3,7 -3,7 5 3 7 4 NE 75 0 0,0
10.11.2019 00:00:00 -3,7 -3,7 5 3 10 5 WSW 59 0 0,0
09.11.2019 23:00:00 -3,3 -3,3 8 5 14 8 SSW 0,5 0 0,0
09.11.2019 22:00:00 -2,8 -2,8 11 6 27 15 SSW 0,1 0 0,0
09.11.2019 21:00:00 -2,4 -2,4 20 11 31 17 SSW - 0 0,0
09.11.2019 20:00:00 -2,4 -2,4 16 9 33 18 SW 0,1 0 0,0
09.11.2019 19:00:00 -2,5 -2,5 20 11 31 17 SW 0,1 0 0,0
09.11.2019 18:00:00 -2,5 -2,5 23 12 34 18 WSW 0,1 0 0,0
09.11.2019 17:00:00 -2,5 -2,5 22 12 40 21 WSW 0,1 0 0,0
09.11.2019 16:00:00 -2,6 -2,7 28 15 46 25 W 0,1 0 0,3
09.11.2019 15:00:00 -2,3 -2,3 30 16 43 23 WSW - 0 0,0
09.11.2019 14:00:00 -2,4 -2,6 30 16 53 28 W - 0 0,1
09.11.2019 13:00:00 -2,3 -2,6 36 20 50 27 W 0,1 0 0,6
09.11.2019 12:00:00 -2,0 -2,2 29 16 50 27 WSW 0,1 0 0,4
09.11.2019 11:00:00 -2,2 -2,4 26 14 37 20 SW 0,1 0 0,1
09.11.2019 10:00:00 -2,1 -2,3 24 13 36 19 WSW 0,1 0 0,5
09.11.2019 09:00:00 -2,2 -2,4 23 13 34 18 WSW 0,1 0 0,4
09.11.2019 08:00:00 -2,0 -2,1 22 12 28 15 SW 0,1 0 0,6
09.11.2019 07:00:00 -1,6 -1,7 21 11 35 19 SW 0,1 0 0,1
09.11.2019 06:00:00 -1,5 -1,5 22 12 32 17 W - 0 0,0
09.11.2019 05:00:00 -1,2 -1,2 18 10 26 14 SW - 0 0,0
09.11.2019 04:00:00 -1,0 -1,0 18 10 31 17 SW - 0 0,0
09.11.2019 03:00:00 -0,6 -0,6 24 13 40 22 SW - 0 0,0
09.11.2019 02:00:00 -0,4 -0,4 23 13 41 22 SW - 0 0,0
09.11.2019 01:00:00 -0,3 -0,5 32 18 44 24 SSW - 0 0,0
09.11.2019 00:00:00 -0,2 -0,3 23 12 32 17 SSW - 0 0,0
08.11.2019 23:00:00 0,1 0,1 27 15 35 19 SW - 0 0,0
08.11.2019 22:00:00 0,2 0,1 16 9 24 13 S - 0 0,0
08.11.2019 21:00:00 0,9 0,8 18 10 27 15 S 0,1 0 0,0
08.11.2019 20:00:00 0,9 0,8 19 10 28 15 S 0,1 0 0,0
08.11.2019 19:00:00 1,7 1,4 23 13 30 16 S 1,2 0 0,0
08.11.2019 18:00:00 1,7 1,3 22 12 36 19 S 7 0 0,0
08.11.2019 17:00:00 2,0 1,0 23 13 36 19 SSE 34 1 0,0
08.11.2019 16:00:00 2,7 0,6 22 12 31 17 SE 60 37 0,0
08.11.2019 15:00:00 2,9 0,4 22 12 34 18 SSE 62 20 0,0
08.11.2019 14:00:00 2,7 -0,3 26 14 37 20 SSE 75 34 0,0
08.11.2019 13:00:00 3,1 -0,9 17 9 31 17 SE 75 0 0,0
08.11.2019 12:00:00 1,6 -1,0 23 12 31 17 SE 53 0 0,0
08.11.2019 11:00:00 0,1 0,0 23 12 29 16 E 0,1 20 0,0
08.11.2019 10:00:00 -0,3 -0,6 20 11 32 18 E 0,1 13 0,0
08.11.2019 09:00:00 0,7 -1,5 20 11 35 19 E 64 18 0,0
08.11.2019 08:00:00 0,4 -1,0 24 13 45 25 E 75 0 0,0
08.11.2019 07:00:00 0,2 -1,3 21 11 35 19 E 47 0 0,0
08.11.2019 06:00:00 0,0 -1,0 17 9 27 15 ENE 34 0 0,0
08.11.2019 05:00:00 0,6 -0,8 11 6 35 19 E 57 0 0,0
08.11.2019 04:00:00 0,3 -0,8 18 10 31 17 ENE 44 0 0,0
08.11.2019 03:00:00 0,9 -0,6 16 9 23 12 E 49 0 0,0
08.11.2019 02:00:00 1,3 -0,7 9 5 12 7 ESE 67 0 0,0
08.11.2019 01:00:00 1,2 -0,4 10 5 17 9 S 39 0 0,0
08.11.2019 00:00:00 1,1 -0,3 9 5 16 9 S 36 0 0,0
07.11.2019 23:00:00 0,8 -0,1 16 9 21 12 S 24 0 0,0
07.11.2019 22:00:00 1,1 -1,2 13 7 27 15 SW 58 0 0,0
07.11.2019 21:00:00 1,2 -1,5 18 10 33 18 SW 59 0 0,0
07.11.2019 20:00:00 1,2 -1,6 24 13 34 19 SW 67 0 0,0
07.11.2019 19:00:00 1,2 -1,3 22 12 44 24 SSW 49 0 0,0
07.11.2019 18:00:00 1,1 -1,8 29 15 40 21 S 63 0 0,0
07.11.2019 17:00:00 2,5 -5,1 16 9 29 16 S 75 0 0,0
07.11.2019 16:00:00 1,7 -3,9 27 14 33 18 S 75 33 0,0
07.11.2019 15:00:00 2,8 0,5 13 7 23 13 S 43 59 0,0
07.11.2019 14:00:00 3,1 0,6 19 10 26 14 SSE 71 60 0,0
07.11.2019 13:00:00 2,5 1,3 17 9 24 13 SSE 38 59 0,0
07.11.2019 12:00:00 1,7 1,0 19 10 28 15 SSE 12 60 0,0
07.11.2019 11:00:00 0,3 -0,2 17 9 22 12 S 0,1 58 0,0
07.11.2019 10:00:00 -0,2 -0,4 14 7 28 15 S 0,1 3 0,0
07.11.2019 09:00:00 -0,5 -0,6 23 12 31 17 S 0,1 0 0,0
07.11.2019 08:00:00 -0,5 -0,6 22 12 31 17 S - 0 0,0
07.11.2019 07:00:00 -0,8 -0,8 21 11 31 17 S - 0 0,0
07.11.2019 06:00:00 -0,3 -0,5 21 12 32 18 S 0,1 0 0,0
07.11.2019 05:00:00 -0,1 -0,2 16 9 27 15 S - 0 0,0
07.11.2019 04:00:00 0,0 0,0 11 6 30 16 SSW - 0 0,0
07.11.2019 03:00:00 0,1 0,0 18 10 29 16 SW - 0 0,0
07.11.2019 02:00:00 0,1 0,1 21 11 39 21 SW - 0 0,0
07.11.2019 01:00:00 0,0 0,0 27 14 45 24 WSW 0,1 0 0,0
07.11.2019 00:00:00 0,0 0,0 36 19 45 25 WSW 0,1 0 0,0
06.11.2019 23:00:00 0,2 0,2 29 16 45 24 WSW 0,1 0 0,0
06.11.2019 22:00:00 0,6 0,6 23 13 38 20 SW - 0 0,1
06.11.2019 21:00:00 0,5 0,4 26 14 42 23 SW - 0 0,1
06.11.2019 20:00:00 0,3 0,3 15 8 30 16 SSW 0,1 0 0,4
06.11.2019 19:00:00 0,8 0,8 16 9 28 15 SSW - 0 0,0
06.11.2019 18:00:00 0,7 0,7 16 8 32 18 SSW - 0 0,0
06.11.2019 17:00:00 0,7 0,7 17 9 32 17 SSW - 0 0,0
06.11.2019 16:00:00 0,8 0,8 16 9 35 19 SW - 0 0,0

tt = temperature
td = dewpoint
ff = wind speed
fx = gusts
dd = wind direction
vv = visibility
sd = sunshine duration
rr = precipitation

Next stations